Meteo Giornale » Osservazioni meteo Grecia » Kefalhnia
ore: 20:20 - Osservazioni Meteo Kefalhnia
Lat. 38° 7' N Lon. 20° 30' E Alt. 19 metri s.l.m.
29 °C
Poco Nuvoloso
Temp. 24 Ore
25 °C
33 °C
Nord/NOvest
25.9 Km/h
Dew point 24 °C
Umidità 74 %
Visibilità 10 Km
Il sole sorge alle ore 07:07
Il sole tramonta alle ore 20:08
| Data e Ora | Cielo e Fenomeni | T °C | DP °C | Um. % | Pres. hPa | Vis. km | Vento km/h | |
|---|---|---|---|---|---|---|---|---|
| Oggi h: 20:20 | Poco Nuvoloso | 29 | 24 | 74 | 1014 | 10 | N/NO 25.9 | |
| Oggi h: 19:50 | Poco Nuvoloso | 30 | 24 | 70 | 1014 | 10 | N/NO 24 | |
| Oggi h: 19:20 | Poco Nuvoloso | 30 | 24 | 70 | 1014 | 10 | NO 25.9 | |
| Oggi h: 18:50 | Poco Nuvoloso | 31 | 25 | 70 | 1014 | 10 | N/NO 22.2 | |
| Oggi h: 18:20 | Poco Nuvoloso | 33 | 26 | 66 | 1013 | 10 | NO 22.2 | |
| Oggi h: 17:50 | Poco Nuvoloso | 33 | 26 | 66 | 1013 | 10 | O/NO 11.1 | |
| Oggi h: 17:20 | Poco Nuvoloso | 31 | 26 | 74 | 1013 | 10 | O 13 | |
| Oggi h: 16:50 | Poco Nuvoloso | 31 | 26 | 74 | 1013 | 10 | O 18.5 | |
| Oggi h: 16:20 | Poco Nuvoloso | 32 | 27 | 74 | 1014 | 10 | O 14.8 | |
| Oggi h: 15:50 | Poco Nuvoloso | 31 | 26 | 74 | 1014 | 10 | O 13 | |
| Oggi h: 15:20 | Poco Nuvoloso | 31 | 26 | 74 | 1014 | 10 | O 13 | |
| Oggi h: 14:50 | Poco Nuvoloso | 31 | 26 | 74 | 1014 | 10 | O 11.1 | |
| Oggi h: 14:20 | Poco Nuvoloso | 30 | 25 | 74 | 1014 | 10 | O 9.3 | |
| Oggi h: 13:50 | Poco Nuvoloso | 30 | 25 | 74 | 1014 | 10 | O 9.3 | |
| Oggi h: 13:20 | Poco Nuvoloso | 30 | 25 | 74 | 1014 | 10 | O 9.3 | |
| Oggi h: 12:50 | Poco Nuvoloso | 30 | 25 | 74 | 1014 | 10 | N 5.5 | |
| Oggi h: 12:20 | Poco Nuvoloso | 29 | 25 | 79 | 1014 | 10 | N 5.5 | |
| Oggi h: 11:50 | Poco Nuvoloso | 29 | 25 | 79 | 1014 | 10 | N 5.5 | |
| Oggi h: 11:20 | Poco Nuvoloso | 29 | 25 | 79 | 1014 | 10 | N 5.5 | |
| Oggi h: 10:50 | Poco Nuvoloso | 29 | 25 | 79 | 1014 | 10 | N 5.5 | |
| Oggi h: 10:20 | Poco Nuvoloso | 29 | 25 | 79 | 1014 | 10 | N 0 | |
| Oggi h: 09:50 | Sereno | 29 | 25 | 79 | 1014 | 10 | N 0 | |
| Oggi h: 09:20 | Sereno | 27 | 25 | 88 | 1014 | 10 | N 0 | |
| Oggi h: 08:50 | Sereno | 27 | 25 | 88 | 1014 | 10 | N 0 | |
| Oggi h: 08:20 | Sereno | 25 | 24 | 94 | 1014 | 10 | N 0 | |
| Oggi h: 07:50 | Sereno | 25 | 24 | 94 | 1014 | 10 | N 0 | |
| Ieri h: 23:20 | Nuvoloso | 28 | 26 | 88 | 1014 | 10 | N 0 | |
| Ieri h: 22:50 | Nuvoloso | 28 | 26 | 88 | 1014 | 10 | N 0 | |
| Ieri h: 22:20 | Nuvoloso | 28 | 26 | 88 | 1014 | 10 | N 0 | |
| Ieri h: 21:50 | Nuvoloso | 28 | 26 | 88 | 1014 | 10 | N 0 | |
| Ieri h: 21:20 | Nuvoloso | 29 | 26 | 83 | 1013 | 10 | N 0 | |
| Ieri h: 20:50 | Nuvoloso | 29 | 26 | 83 | 1013 | 10 | N 5.5 | |



